Time;durP1;ratioP1;P1;durP2;ratioP2;P2;SDS_P1;SDS_P2;PMS_P1;PMS_P2;Temp;Humidity;BMP_temperature;BMP_pressure;BME280_temperature;BME280_humidity;BME280_pressure;Samples;Min_cycle;Max_cycle;Signal;HPM_P1;HPM_P2
2021/07/13 00:01:39;;;;;;;5.05;2.95;;;;;;;18.08;100.00;100672.19;1742965;82;21011;-52
2021/07/13 00:04:07;;;;;;;5.97;2.90;;;;;;;18.06;100.00;100668.35;1735749;81;21019;-48
2021/07/13 00:06:33;;;;;;;2.95;2.00;;;;;;;18.04;100.00;100665.91;1745121;82;21074;-45
2021/07/13 00:09:00;;;;;;;5.90;3.22;;;;;;;18.04;100.00;100672.81;1745068;82;20981;-52
2021/07/13 00:11:28;;;;;;;5.08;2.72;;;;;;;18.04;100.00;100667.28;1743112;82;21069;-48
2021/07/13 00:13:56;;;;;;;7.65;3.15;;;;;;;18.03;100.00;100664.28;1744828;82;21023;-52
2021/07/13 00:16:24;;;;;;;3.98;2.33;;;;;;;18.04;100.00;100671.44;1702338;84;21056;-45
2021/07/13 00:18:51;;;;;;;6.25;3.47;;;;;;;18.06;100.00;100679.41;1704284;83;21047;-46
2021/07/13 00:21:17;;;;;;;6.87;3.33;;;;;;;18.09;100.00;100684.29;1724085;81;21028;-46
2021/07/13 00:23:43;;;;;;;7.53;4.08;;;;;;;18.11;100.00;100693.66;1707072;81;21023;-51
2021/07/13 00:26:10;;;;;;;7.15;2.77;;;;;;;18.12;100.00;100689.73;1704344;84;21031;-51
2021/07/13 00:28:36;;;;;;;5.75;2.85;;;;;;;18.13;100.00;100694.95;1744917;82;21042;-45
2021/07/13 00:31:03;;;;;;;6.70;3.05;;;;;;;18.14;100.00;100698.53;1744872;81;21497;-46
2021/07/13 00:33:29;;;;;;;5.22;3.15;;;;;;;18.14;100.00;100701.30;1704092;84;21059;-52
2021/07/13 00:35:56;;;;;;;4.83;3.55;;;;;;;18.14;100.00;100693.80;1704278;84;21067;-52
2021/07/13 00:38:23;;;;;;;6.83;3.33;;;;;;;18.14;100.00;100702.67;1744836;82;21078;-48
2021/07/13 00:40:49;;;;;;;6.22;3.47;;;;;;;18.13;100.00;100692.19;1716987;82;21181;-46
2021/07/13 00:43:16;;;;;;;5.05;3.15;;;;;;;18.12;100.00;100690.55;1677710;84;20911;-51
2021/07/13 00:45:43;;;;;;;6.35;3.65;;;;;;;18.09;100.00;100700.08;1704161;84;20919;-52
2021/07/13 00:48:10;;;;;;;8.98;3.60;;;;;;;18.05;100.00;100695.20;1701810;83;21055;-45
2021/07/13 00:50:36;;;;;;;4.97;3.42;;;;;;;18.05;100.00;100695.20;1669405;84;21076;-52
2021/07/13 00:53:04;;;;;;;6.92;3.77;;;;;;;18.04;100.00;100689.98;1721468;82;21607;-53
2021/07/13 00:55:30;;;;;;;4.85;2.50;;;;;;;18.02;100.00;100685.34;1745229;82;21522;-47
2021/07/13 00:57:57;;;;;;;5.95;3.25;;;;;;;17.99;100.00;100685.41;1675350;83;21109;-51
2021/07/13 01:00:23;;;;;;;5.92;3.15;;;;;;;17.97;100.00;100681.34;1697854;82;20986;-45
2021/07/13 01:02:54;;;;;;;6.05;3.30;;;;;;;17.95;100.00;100677.55;1734374;80;21485;-45
2021/07/13 01:05:24;;;;;;;4.37;2.50;;;;;;;17.92;100.00;100681.51;1696274;84;20968;-52
2021/07/13 01:07:59;;;;;;;5.75;3.37;;;;;;;17.92;100.00;100682.89;1721017;80;21057;-46
2021/07/13 01:10:50;;;;;;;7.35;3.58;;;;;;;17.91;100.00;100665.49;1729002;81;20877;-52
2021/07/13 01:13:45;;;;;;;4.47;3.02;;;;;;;17.92;100.00;100668.49;1696121;84;20983;-51
2021/07/13 01:16:18;;;;;;;9.75;4.35;;;;;;;17.93;100.00;100662.42;1715354;83;21012;-47
2021/07/13 01:19:09;;;;;;;6.62;3.47;;;;;;;17.94;100.00;100670.37;1671626;84;20998;-46
2021/07/13 01:21:46;;;;;;;20.60;3.27;;;;;;;17.96;100.00;100669.48;1650076;86;21103;-46
2021/07/13 01:24:22;;;;;;;7.67;4.20;;;;;;;17.99;100.00;100666.64;1746393;82;21058;-45
2021/07/13 01:27:22;;;;;;;4.97;2.70;;;;;;;17.99;100.00;100674.36;1702403;82;21378;-47
2021/07/13 01:29:49;;;;;;;5.15;3.47;;;;;;;18.02;100.00;100685.34;1722879;81;21015;-46
2021/07/13 01:32:19;;;;;;;6.95;3.40;;;;;;;18.04;100.00;100690.78;1670202;84;21035;-45
2021/07/13 01:34:48;;;;;;;5.92;3.33;;;;;;;18.08;100.00;100695.69;1715785;83;21567;-46
2021/07/13 01:37:15;;;;;;;6.10;3.90;;;;;;;18.08;100.00;100691.55;1695093;82;21042;-51
2021/07/13 01:39:41;;;;;;;7.37;4.42;;;;;;;18.08;100.00;100688.78;1696512;84;21002;-52
2021/07/13 01:42:09;;;;;;;7.47;3.65;;;;;;;18.10;100.00;100697.00;1715712;83;21067;-52
2021/07/13 01:44:37;;;;;;;8.73;3.65;;;;;;;18.12;100.00;100696.08;1690535;83;21070;-52
2021/07/13 01:47:03;;;;;;;7.28;2.83;;;;;;;18.15;100.00;100677.48;1717352;82;21062;-52
2021/07/13 01:49:30;;;;;;;5.40;3.33;;;;;;;18.17;100.00;100686.23;1717208;83;21579;-52
2021/07/13 01:51:57;;;;;;;5.08;3.47;;;;;;;18.17;100.00;100679.89;1692850;83;21531;-48
2021/07/13 01:54:26;;;;;;;6.97;3.60;;;;;;;18.18;100.00;100678.20;1710874;81;20977;-45
2021/07/13 01:56:55;;;;;;;4.08;2.30;;;;;;;18.17;100.00;100671.59;1739312;81;21036;-46
2021/07/13 01:59:22;;;;;;;6.80;3.42;;;;;;;18.15;100.00;100671.95;1761404;81;20947;-47
2021/07/13 02:01:49;;;;;;;6.83;3.95;;;;;;;18.16;100.00;100668.03;1755273;80;21497;-52
2021/07/13 02:04:16;;;;;;;5.80;3.75;;;;;;;18.17;100.00;100661.92;1694266;83;21401;-51
2021/07/13 02:06:44;;;;;;;4.70;2.87;;;;;;;18.17;100.00;100668.83;1732322;81;21046;-52
2021/07/13 02:09:14;;;;;;;6.62;4.30;;;;;;;18.19;100.00;100677.63;1744280;81;21715;-52
2021/07/13 02:11:44;;;;;;;5.92;4.00;;;;;;;18.20;100.00;100679.23;1698921;84;20995;-46
2021/07/13 02:14:12;;;;;;;8.43;3.67;;;;;;;18.21;100.00;100686.41;1747702;82;21011;-51
2021/07/13 02:16:39;;;;;;;6.40;3.67;;;;;;;18.23;100.00;100687.72;1704566;82;21069;-46
2021/07/13 02:19:07;;;;;;;7.03;3.80;;;;;;;18.25;100.00;100695.13;1728588;81;21015;-46
2021/07/13 02:21:34;;;;;;;6.83;4.03;;;;;;;18.28;100.00;100708.06;1699491;84;21327;-52
2021/07/13 02:24:03;;;;;;;6.17;3.35;;;;;;;18.28;100.00;100714.41;1747687;82;20995;-47
2021/07/13 02:26:43;;;;;;;4.92;3.30;;;;;;;18.29;100.00;100716.59;1728717;81;21041;-47
2021/07/13 02:29:34;;;;;;;6.08;3.30;;;;;;;18.30;100.00;100711.30;1728316;83;21025;-51
2021/07/13 02:32:07;;;;;;;6.05;3.62;;;;;;;18.30;100.00;100707.14;1708431;82;21885;-52
2021/07/13 02:34:39;;;;;;;6.47;3.35;;;;;;;18.29;100.00;100703.57;1707207;83;21020;-51
2021/07/13 02:37:06;;;;;;;6.67;4.20;;;;;;;18.30;100.00;100702.45;1717823;83;21016;-52
2021/07/13 02:39:32;;;;;;;6.35;3.42;;;;;;;18.31;100.00;100701.30;1707059;82;21541;-52
2021/07/13 02:41:59;;;;;;;5.55;3.22;;;;;;;18.33;100.00;100689.92;1723478;82;21050;-52
2021/07/13 02:44:28;;;;;;;6.20;3.62;;;;;;;18.33;100.00;100690.73;1728235;83;21013;-46
2021/07/13 02:46:56;;;;;;;5.30;3.50;;;;;;;18.37;100.00;100695.86;1728302;81;21002;-52
2021/07/13 02:49:30;;;;;;;8.45;4.30;;;;;;;18.39;100.00;100688.03;1740085;80;21008;-46
2021/07/13 02:51:56;;;;;;;8.25;4.47;;;;;;;18.42;100.00;100687.40;1699059;84;21449;-51
2021/07/13 02:54:26;;;;;;;8.05;3.95;;;;;;;18.47;100.00;100690.54;1716357;83;21046;-47
2021/07/13 02:56:52;;;;;;;7.50;3.80;;;;;;;18.51;100.00;100682.41;1699161;84;21011;-52
2021/07/13 02:59:22;;;;;;;6.65;3.87;;;;;;;18.54;100.00;100683.14;1728774;80;20978;-51
2021/07/13 03:01:48;;;;;;;6.05;3.47;;;;;;;18.58;100.00;100685.50;1709826;83;20998;-51
2021/07/13 03:04:16;;;;;;;6.33;4.37;;;;;;;18.67;100.00;100688.50;1709572;83;21452;-51
2021/07/13 03:06:42;;;;;;;11.65;4.37;;;;;;;18.79;100.00;100692.56;1711983;83;21592;-46
2021/07/13 03:09:09;;;;;;;12.30;4.37;;;;;;;18.94;100.00;100705.07;1712015;83;21037;-46
2021/07/13 03:11:36;;;;;;;6.00;3.17;;;;;;;19.07;100.00;100697.16;1687441;83;21045;-48
2021/07/13 03:14:08;;;;;;;6.72;3.62;;;;;;;19.18;100.00;100705.33;1709809;83;21419;-51
2021/07/13 03:16:35;;;;;;;7.85;4.40;;;;;;;19.29;100.00;100705.22;1716118;83;21387;-51
2021/07/13 03:19:03;;;;;;;6.05;3.95;;;;;;;19.44;100.00;100701.66;1711788;82;21471;-48
2021/07/13 03:21:33;;;;;;;6.15;3.77;;;;;;;19.58;100.00;100688.94;1707492;84;21373;-51
2021/07/13 03:24:00;;;;;;;7.30;4.30;;;;;;;19.71;100.00;100686.55;1707165;83;21443;-45
2021/07/13 03:26:33;;;;;;;6.12;3.75;;;;;;;19.81;100.00;100693.09;1702594;83;21784;-51
2021/07/13 03:29:00;;;;;;;5.70;3.42;;;;;;;19.85;100.00;100695.41;1710331;83;21017;-50
2021/07/13 03:31:26;;;;;;;7.95;3.92;;;;;;;19.87;100.00;100686.77;1709365;83;21581;-51
2021/07/13 03:33:56;;;;;;;6.35;3.75;;;;;;;19.92;100.00;100689.33;1709438;83;20997;-51
2021/07/13 03:36:22;;;;;;;5.58;3.37;;;;;;;19.95;100.00;100687.27;1709846;82;21583;-46
2021/07/13 03:38:49;;;;;;;5.10;3.37;;;;;;;20.00;100.00;100690.42;1709897;83;21009;-52
2021/07/13 03:41:16;;;;;;;7.62;3.70;;;;;;;20.08;100.00;100686.21;1709797;83;21116;-47
2021/07/13 03:43:43;;;;;;;5.72;3.90;;;;;;;20.23;100.00;100686.73;1709887;83;21033;-51
2021/07/13 03:46:09;;;;;;;6.10;3.72;;;;;;;20.35;100.00;100695.11;1708582;83;21034;-52
2021/07/13 03:48:36;;;;;;;5.72;3.30;;;;;;;20.45;100.00;100692.50;1684793;84;21117;-51
2021/07/13 03:51:04;;;;;;;7.33;4.30;;;;;;;20.57;100.00;100700.36;1707214;83;21003;-47
2021/07/13 03:53:31;;;;;;;5.55;3.60;;;;;;;20.61;100.00;100697.70;1684804;84;21010;-47
2021/07/13 03:55:57;;;;;;;7.78;3.22;;;;;;;20.63;100.00;100694.01;1707002;83;21034;-52
2021/07/13 03:58:23;;;;;;;5.62;3.20;;;;;;;20.66;100.00;100695.29;1706987;83;21013;-46
2021/07/13 04:00:50;;;;;;;6.17;4.03;;;;;;;20.72;100.00;100693.36;1745684;82;21110;-47
2021/07/13 04:03:16;;;;;;;4.70;3.00;;;;;;;20.81;100.00;100690.47;1747247;82;21062;-47
2021/07/13 04:05:43;;;;;;;7.12;3.20;;;;;;;20.87;100.00;100693.28;1747205;82;21007;-52
2021/07/13 04:08:10;;;;;;;5.00;3.20;;;;;;;20.97;100.00;100698.39;1744959;82;21016;-48
2021/07/13 04:10:36;;;;;;;6.65;3.75;;;;;;;21.09;100.00;100695.39;1747423;81;21039;-47
2021/07/13 04:13:03;;;;;;;5.62;3.22;;;;;;;21.20;100.00;100697.97;1747217;82;21479;-47
2021/07/13 04:15:29;;;;;;;7.40;3.92;;;;;;;21.28;100.00;100695.66;1745086;82;21065;-47
2021/07/13 04:17:58;;;;;;;5.97;3.83;;;;;;;21.33;100.00;100691.84;1730712;82;20976;-51
2021/07/13 04:20:25;;;;;;;7.35;3.67;;;;;;;21.40;100.00;100699.87;1747278;81;21008;-47
2021/07/13 04:22:54;;;;;;;6.03;3.65;;;;;;;21.41;100.00;100700.12;1744114;80;21026;-52
2021/07/13 04:25:20;;;;;;;9.10;3.70;;;;;;;21.47;100.00;100704.86;1753884;81;21058;-52
2021/07/13 04:27:46;;;;;;;5.80;3.20;;;;;;;21.55;100.00;100708.68;1749410;81;21058;-46
2021/07/13 04:30:15;;;;;;;5.70;3.27;;;;;;;21.57;100.00;100707.76;1712378;83;20976;-52
2021/07/13 04:32:41;;;;;;;5.53;3.20;;;;;;;21.64;100.00;100700.45;1688556;83;21066;-53
2021/07/13 04:35:09;;;;;;;5.42;2.80;;;;;;;21.73;100.00;100699.52;1701245;84;21043;-52
2021/07/13 04:37:36;;;;;;;5.53;3.37;;;;;;;21.82;100.00;100696.84;1747182;82;21028;-52
2021/07/13 04:40:04;;;;;;;6.37;3.70;;;;;;;21.90;100.00;100695.89;1758051;80;20999;-46
2021/07/13 04:42:31;;;;;;;5.67;4.10;;;;;;;21.99;100.00;100704.70;1747793;80;21011;-52
2021/07/13 04:44:59;;;;;;;6.50;3.30;;;;;;;22.06;100.00;100694.60;1717455;83;20994;-46
2021/07/13 04:47:25;;;;;;;6.03;3.47;;;;;;;22.16;100.00;100702.24;1746676;82;21019;-46
2021/07/13 04:49:51;;;;;;;5.37;3.42;;;;;;;22.25;100.00;100698.75;1746592;82;21607;-51
2021/07/13 04:52:18;;;;;;;5.90;3.60;;;;;;;22.27;100.00;100700.02;1747467;80;21019;-46
2021/07/13 04:54:45;;;;;;;5.65;3.85;;;;;;;22.26;100.00;100705.36;1756857;80;20951;-47
2021/07/13 04:57:11;;;;;;;4.58;2.77;;;;;;;22.32;100.00;100706.72;1754932;80;21031;-52
2021/07/13 04:59:38;;;;;;;9.33;3.65;;;;;;;22.37;100.00;100708.45;1744781;82;21003;-48
2021/07/13 05:02:04;;;;;;;5.10;3.20;;;;;;;22.45;100.00;100706.68;1742135;81;21055;-52
2021/07/13 05:04:31;;;;;;;3.80;2.72;;;;;;;22.58;100.00;100705.48;1741401;82;21030;-47
2021/07/13 05:06:58;;;;;;;4.55;3.00;;;;;;;22.68;100.00;100699.40;1719125;82;20918;-52
2021/07/13 05:09:25;;;;;;;5.95;3.45;;;;;;;22.75;100.00;100707.16;1719453;83;21488;-47
2021/07/13 05:11:52;;;;;;;4.08;2.55;;;;;;;22.81;100.00;100708.50;1727556;82;21458;-46
2021/07/13 05:14:19;;;;;;;3.20;2.90;;;;;;;22.87;100.00;100714.06;1723639;82;21042;-53
2021/07/13 05:16:46;;;;;;;3.58;2.40;;;;;;;23.03;100.00;100719.67;1721501;81;21010;-47
2021/07/13 05:19:14;;;;;;;4.47;2.87;;;;;;;23.21;100.00;100715.95;1722529;82;21076;-52
2021/07/13 05:21:44;;;;;;;4.90;2.87;;;;;;;23.35;100.00;100715.52;1719389;83;21416;-52
2021/07/13 05:24:12;;;;;;;3.98;3.10;;;;;;;23.44;100.00;100716.13;1718433;83;21073;-51
2021/07/13 05:26:42;;;;;;;3.62;2.55;;;;;;;23.51;100.00;100719.09;1725950;80;21064;-52
2021/07/13 05:29:08;;;;;;;4.00;2.98;;;;;;;23.60;100.00;100722.52;1702562;83;21465;-45
2021/07/13 05:31:37;;;;;;;5.35;2.90;;;;;;;23.69;100.00;100728.48;1719335;83;21108;-46
2021/07/13 05:34:03;;;;;;;5.25;3.42;;;;;;;23.73;100.00;100732.20;1719707;83;21005;-52
2021/07/13 05:36:30;;;;;;;4.97;3.10;;;;;;;23.86;100.00;100722.55;1743288;80;21017;-47
2021/07/13 05:38:56;;;;;;;4.75;2.95;;;;;;;23.99;100.00;100728.25;1718915;83;21022;-46
2021/07/13 05:41:23;;;;;;;7.47;3.45;;;;;;;24.08;100.00;100732.22;1716381;82;21537;-48
2021/07/13 05:43:50;;;;;;;4.80;3.12;;;;;;;24.22;100.00;100730.34;1719384;83;21720;-52
2021/07/13 05:46:16;;;;;;;4.05;2.70;;;;;;;24.33;99.05;100730.56;1721051;82;21026;-52
2021/07/13 05:48:44;;;;;;;5.05;2.45;;;;;;;24.39;97.47;100729.91;1706855;82;21013;-47
2021/07/13 05:51:11;;;;;;;4.08;2.90;;;;;;;24.49;98.19;100730.55;1732111;81;21525;-46
2021/07/13 05:53:38;;;;;;;4.92;3.27;;;;;;;24.63;98.48;100722.47;1678294;83;21516;-49
2021/07/13 05:56:05;;;;;;;6.25;3.10;;;;;;;24.77;98.14;100719.92;1725238;81;21410;-46
2021/07/13 05:58:31;;;;;;;4.25;2.60;;;;;;;24.89;97.42;100725.35;1726361;82;21061;-51
2021/07/13 06:00:57;;;;;;;3.52;2.50;;;;;;;24.95;95.10;100737.63;1688592;84;21053;-51
2021/07/13 06:03:24;;;;;;;5.10;3.05;;;;;;;24.95;93.11;100727.84;1667260;84;21057;-46
2021/07/13 06:05:51;;;;;;;3.70;2.60;;;;;;;24.97;92.64;100732.48;1671596;85;21192;-45
2021/07/13 06:08:17;;;;;;;3.85;2.70;;;;;;;24.99;89.93;100730.12;1673008;84;21033;-48
2021/07/13 06:10:45;;;;;;;5.08;3.42;;;;;;;25.03;89.80;100722.03;1688832;84;21617;-52
2021/07/13 06:13:12;;;;;;;4.72;3.00;;;;;;;25.14;87.85;100718.61;1710285;83;21030;-51
2021/07/13 06:15:39;;;;;;;5.05;3.45;;;;;;;25.23;88.18;100721.41;1708957;83;21021;-51
2021/07/13 06:18:05;;;;;;;4.50;2.90;;;;;;;25.33;87.81;100714.98;1706829;83;21302;-52
2021/07/13 06:20:33;;;;;;;4.15;2.42;;;;;;;25.46;88.57;100718.59;1706835;83;21022;-51
2021/07/13 06:23:00;;;;;;;3.33;2.70;;;;;;;25.57;87.69;100722.98;1715363;83;21419;-52
2021/07/13 06:25:27;;;;;;;4.40;2.83;;;;;;;25.67;87.47;100717.34;1706325;84;21076;-46
2021/07/13 06:27:53;;;;;;;3.58;2.70;;;;;;;25.85;87.85;100717.61;1705723;83;21066;-52
2021/07/13 06:30:20;;;;;;;4.28;2.92;;;;;;;26.05;86.69;100712.13;1705551;83;21055;-46
2021/07/13 06:32:47;;;;;;;4.97;2.92;;;;;;;26.25;84.84;100714.80;1705329;83;21461;-51
2021/07/13 06:35:13;;;;;;;4.60;2.90;;;;;;;26.36;85.09;100711.55;1705538;83;21038;-52
2021/07/13 06:37:43;;;;;;;6.03;3.33;;;;;;;26.45;85.64;100711.25;1698059;84;21477;-45
2021/07/13 06:40:11;;;;;;;5.40;3.27;;;;;;;26.55;82.97;100709.20;1697315;84;21019;-51
2021/07/13 06:42:38;;;;;;;5.45;3.42;;;;;;;26.53;82.19;100711.00;1706846;83;21710;-51
2021/07/13 06:45:06;;;;;;;5.20;3.00;;;;;;;26.59;81.93;100715.06;1706996;84;21484;-50
2021/07/13 06:47:33;;;;;;;7.50;3.02;;;;;;;26.59;79.88;100712.86;1659377;84;21110;-46
2021/07/13 06:50:01;;;;;;;5.03;3.35;;;;;;;26.62;80.05;100714.89;1656486;85;21058;-51
2021/07/13 06:52:27;;;;;;;4.42;3.45;;;;;;;26.69;78.81;100714.97;1678289;85;21436;-45
2021/07/13 06:54:53;;;;;;;5.17;3.05;;;;;;;26.72;79.16;100716.20;1678533;84;21580;-45
2021/07/13 06:57:21;;;;;;;4.67;3.15;;;;;;;26.86;80.04;100721.97;1656553;85;21036;-45
2021/07/13 06:59:48;;;;;;;4.80;3.10;;;;;;;26.96;80.17;100722.67;1704016;82;21078;-51
2021/07/13 07:02:14;;;;;;;5.45;3.70;;;;;;;27.07;80.35;100723.38;1733754;82;20992;-51
2021/07/13 07:04:40;;;;;;;4.95;3.50;;;;;;;27.25;79.38;100718.79;1696243;84;21059;-51
2021/07/13 07:07:09;;;;;;;4.70;3.17;;;;;;;27.39;79.13;100723.09;1718156;82;21071;-51
2021/07/13 07:09:35;;;;;;;6.00;3.40;;;;;;;27.55;78.46;100722.84;1696387;84;21015;-51
2021/07/13 07:12:02;;;;;;;3.37;2.42;;;;;;;27.71;76.27;100728.16;1721803;82;21599;-46
2021/07/13 07:14:29;;;;;;;4.25;2.87;;;;;;;27.76;73.47;100724.99;1747358;82;21039;-45
2021/07/13 07:16:55;;;;;;;3.85;2.70;;;;;;;27.70;72.57;100719.55;1747368;82;21074;-51
2021/07/13 07:19:23;;;;;;;3.80;3.15;;;;;;;27.63;71.27;100722.30;1747418;82;21058;-46
2021/07/13 07:21:50;;;;;;;4.28;2.75;;;;;;;27.58;72.25;100719.86;1746831;82;21054;-51
2021/07/13 07:24:16;;;;;;;3.87;2.87;;;;;;;27.60;73.33;100723.89;1717388;83;21398;-51
2021/07/13 07:26:42;;;;;;;3.83;2.55;;;;;;;27.59;72.58;100724.27;1692854;83;21035;-51
2021/07/13 07:29:09;;;;;;;5.87;3.75;;;;;;;27.61;73.42;100721.87;1717645;83;21586;-51
2021/07/13 07:31:35;;;;;;;3.60;2.80;;;;;;;27.63;74.11;100722.30;1717454;81;21039;-51
2021/07/13 07:34:01;;;;;;;3.95;2.52;;;;;;;27.74;73.83;100714.74;1696605;84;21023;-51
2021/07/13 07:36:28;;;;;;;4.72;2.95;;;;;;;27.85;76.30;100718.48;1716000;83;21019;-44
2021/07/13 07:38:55;;;;;;;4.12;3.02;;;;;;;27.96;73.70;100721.34;1696423;84;20987;-44
2021/07/13 07:41:21;;;;;;;5.20;3.00;;;;;;;28.02;74.24;100714.17;1716119;82;21027;-45
2021/07/13 07:43:48;;;;;;;4.60;3.10;;;;;;;28.15;74.25;100718.05;1696577;84;21488;-51
2021/07/13 07:46:15;;;;;;;5.30;2.77;;;;;;;28.20;72.19;100714.26;1715827;83;21051;-51
2021/07/13 07:48:41;;;;;;;4.28;3.33;;;;;;;28.22;72.96;100709.06;1697622;83;21382;-51
2021/07/13 07:51:08;;;;;;;5.22;3.40;;;;;;;28.23;73.14;100713.47;1747089;80;20983;-51
2021/07/13 07:53:36;;;;;;;3.40;2.77;;;;;;;28.24;73.65;100712.28;1725535;82;21019;-45
2021/07/13 07:56:03;;;;;;;4.08;3.00;;;;;;;28.21;72.82;100717.27;1757674;81;22362;-44
2021/07/13 07:58:29;;;;;;;4.20;3.50;;;;;;;28.16;73.24;100707.80;1757752;81;21054;-51
2021/07/13 09:04:04;;;;;;;5.10;3.50;;;;;;;28.93;68.42;100728.80;1718122;81;21635;-45
2021/07/13 09:06:57;;;;;;;5.03;3.47;;;;;;;28.97;69.89;100731.02;1726451;80;21598;-45
2021/07/13 09:09:37;;;;;;;5.87;3.27;;;;;;;29.05;70.05;100731.23;1749108;81;20996;-45
2021/07/13 09:12:21;;;;;;;6.03;2.98;;;;;;;29.19;69.56;100725.47;1739530;80;20934;-46
2021/07/13 09:15:08;;;;;;;4.65;3.08;;;;;;;29.23;70.30;100726.26;1739157;82;21066;-46
2021/07/13 09:17:39;;;;;;;9.73;3.85;;;;;;;29.20;68.83;100718.63;1719946;80;21398;-52
2021/07/13 09:20:22;;;;;;;4.85;3.20;;;;;;;29.04;66.19;100715.57;1727770;82;21024;-52
2021/07/13 09:22:58;;;;;;;5.35;2.98;;;;;;;28.92;68.86;100704.70;1749928;80;21030;-51
2021/07/13 09:25:36;;;;;;;5.40;3.50;;;;;;;28.91;69.22;100701.70;1728285;80;21507;-52
2021/07/13 09:28:19;;;;;;;6.33;3.70;;;;;;;28.93;70.01;100702.08;1753785;80;20980;-46
2021/07/13 09:30:52;;;;;;;6.20;3.83;;;;;;;28.88;65.86;100716.53;1731882;81;21438;-52
2021/07/13 09:33:27;;;;;;;4.55;3.42;;;;;;;28.76;66.64;100714.09;1745288;81;21021;-45
2021/07/13 09:36:11;;;;;;;5.67;3.70;;;;;;;28.61;67.89;100712.67;1743497;80;21015;-46
2021/07/13 09:38:48;;;;;;;4.67;3.52;;;;;;;28.54;68.87;100714.05;1721537;83;21054;-46
2021/07/13 09:41:28;;;;;;;4.87;3.20;;;;;;;28.61;69.26;100721.67;1706324;82;20975;-52
2021/07/13 09:44:03;;;;;;;4.53;3.08;;;;;;;28.59;68.42;100720.69;1688838;84;21028;-46
2021/07/13 09:46:33;;;;;;;5.78;3.62;;;;;;;28.56;69.47;100718.67;1754958;81;20987;-47
2021/07/13 09:49:17;;;;;;;5.40;3.47;;;;;;;28.57;68.82;100715.25;1689154;84;21018;-46
2021/07/13 09:52:04;;;;;;;4.50;3.02;;;;;;;28.59;70.51;100716.47;1754145;80;20996;-46
2021/07/13 09:54:41;;;;;;;5.47;2.90;;;;;;;28.70;69.83;100720.10;1749420;81;21035;-45
2021/07/13 09:57:16;;;;;;;5.15;3.37;;;;;;;28.75;70.36;100719.52;1747241;80;20992;-52
2021/07/13 09:59:48;;;;;;;5.85;3.52;;;;;;;28.87;69.58;100717.75;1780513;80;21011;-46
2021/07/13 10:02:16;;;;;;;5.03;3.72;;;;;;;28.91;69.77;100716.55;1741178;80;21053;-46
2021/07/13 10:04:42;;;;;;;5.87;3.12;;;;;;;28.95;67.87;100708.91;1721499;82;21026;-52
2021/07/13 10:07:18;;;;;;;4.70;3.20;;;;;;;28.95;67.92;100706.70;1741015;82;21018;-52
2021/07/13 10:09:48;;;;;;;4.28;3.00;;;;;;;28.91;68.87;100710.13;1741632;81;21501;-52
2021/07/13 10:12:22;;;;;;;4.55;3.33;;;;;;;28.97;66.54;100709.13;1741922;81;21484;-47
2021/07/13 10:14:55;;;;;;;5.03;3.60;;;;;;;29.02;67.68;100712.34;1741783;82;21003;-47
2021/07/13 10:17:25;;;;;;;4.87;3.05;;;;;;;29.06;67.83;100711.79;1717522;82;20953;-52
2021/07/13 10:20:09;;;;;;;5.22;3.60;;;;;;;29.10;69.11;100712.58;1736160;82;20980;-46
2021/07/13 10:22:42;;;;;;;3.85;2.85;;;;;;;29.22;68.97;100712.80;1728675;81;21549;-52
2021/07/13 10:25:09;;;;;;;5.50;3.12;;;;;;;29.41;67.39;100714.42;1712820;82;21056;-46
2021/07/13 10:27:41;;;;;;;5.33;3.37;;;;;;;29.48;66.45;100715.83;1682366;84;21001;-49
2021/07/13 10:30:21;;;;;;;4.78;3.10;;;;;;;29.47;63.53;100714.20;1747495;82;21029;-47
2021/07/13 10:32:48;;;;;;;4.33;2.83;;;;;;;29.45;65.65;100715.81;1731190;80;20984;-52
2021/07/13 10:35:24;;;;;;;3.55;2.65;;;;;;;29.48;65.26;100717.23;1731564;82;21507;-52
2021/07/13 10:37:52;;;;;;;3.92;3.00;;;;;;;29.54;65.97;100721.24;1680504;84;20998;-45
2021/07/13 10:40:36;;;;;;;7.58;3.55;;;;;;;29.66;66.05;100720.67;1674600;84;21054;-51
2021/07/13 10:43:04;;;;;;;5.17;3.30;;;;;;;29.72;64.50;100721.86;1705712;84;21634;-46
2021/07/13 10:45:42;;;;;;;7.45;3.80;;;;;;;29.77;63.87;100725.09;1706929;83;21077;-47
2021/07/13 10:48:19;;;;;;;4.67;3.27;;;;;;;29.82;63.30;100723.05;1693947;82;21075;-52
2021/07/13 10:50:57;;;;;;;6.35;3.45;;;;;;;29.83;64.40;100717.03;1706345;83;21008;-51
2021/07/13 10:53:31;;;;;;;4.72;3.58;;;;;;;29.86;62.52;100719.03;1704457;82;20984;-46
2021/07/13 10:56:19;;;;;;;3.75;2.80;;;;;;;29.92;63.60;100719.41;1720277;82;21063;-52
2021/07/13 10:58:49;;;;;;;4.15;3.17;;;;;;;29.97;62.86;100718.41;1690902;84;21056;-52
2021/07/13 11:01:24;;;;;;;3.05;2.35;;;;;;;30.00;62.22;100716.80;1698361;82;21011;-52
2021/07/13 11:03:53;;;;;;;4.15;2.80;;;;;;;30.01;59.14;100715.58;1695152;84;21486;-52
2021/07/13 11:06:21;;;;;;;4.20;2.70;;;;;;;30.03;60.94;100713.77;1718058;81;20996;-47
2021/07/13 11:08:51;;;;;;;4.55;2.83;;;;;;;30.04;57.06;100711.94;1718232;82;21016;-52
2021/07/13 11:11:29;;;;;;;4.37;2.60;;;;;;;30.02;58.99;100715.80;1733180;81;21023;-52
2021/07/13 11:14:04;;;;;;;2.15;1.45;;;;;;;30.07;60.06;100708.91;1718152;83;21474;-51
2021/07/13 11:16:39;;;;;;;3.58;2.08;;;;;;;30.22;54.66;100713.31;1717334;81;21083;-45
2021/07/13 11:19:17;;;;;;;2.05;1.52;;;;;;;30.32;56.20;100712.50;1712908;82;20936;-46
2021/07/13 11:21:50;;;;;;;5.22;2.25;;;;;;;30.45;53.94;100705.00;1723408;82;21031;-46
2021/07/13 11:24:23;;;;;;;3.45;1.80;;;;;;;30.46;53.21;100707.39;1738574;82;21568;-45
2021/07/13 11:26:55;;;;;;;2.20;2.00;;;;;;;30.43;52.28;100703.98;1735796;81;21012;-47
2021/07/13 11:29:28;;;;;;;1.65;1.55;;;;;;;30.56;53.20;100708.55;1726018;82;21527;-47
2021/07/13 11:31:59;;;;;;;1.67;1.47;;;;;;;30.79;53.50;100706.02;1734274;82;21468;-49
2021/07/13 11:34:36;;;;;;;2.85;1.52;;;;;;;31.13;53.89;100705.40;1691316;83;21602;-52
2021/07/13 11:37:05;;;;;;;1.90;1.70;;;;;;;31.47;47.93;100704.77;1683674;84;21459;-47
2021/07/13 11:39:34;;;;;;;4.10;1.85;;;;;;;31.69;48.27;100699.10;1696599;84;21496;-52
2021/07/13 11:42:09;;;;;;;1.60;1.30;;;;;;;31.86;45.82;100696.52;1732694;82;21004;-52
2021/07/13 11:44:38;;;;;;;1.82;1.25;;;;;;;31.95;47.71;100701.11;1707546;84;21009;-49
2021/07/13 11:47:10;;;;;;;1.98;1.62;;;;;;;32.12;47.43;100698.69;1712566;83;20950;-46
2021/07/13 11:49:36;;;;;;;2.95;2.00;;;;;;;32.31;46.69;100702.09;1744524;81;21555;-47
2021/07/13 11:52:09;;;;;;;2.25;1.62;;;;;;;32.40;46.06;100702.38;1743654;80;20964;-45
2021/07/13 11:54:39;;;;;;;2.30;1.72;;;;;;;32.46;44.91;100700.67;1706919;83;21048;-48
2021/07/13 11:57:08;;;;;;;2.95;2.27;;;;;;;32.52;44.55;100698.22;1726847;80;21018;-46
2021/07/13 11:59:35;;;;;;;3.98;2.25;;;;;;;32.54;47.09;100696.58;1736725;82;21132;-45
2021/07/13 12:02:06;;;;;;;2.12;1.75;;;;;;;32.70;46.62;100697.35;1736712;81;21368;-47
2021/07/13 12:04:39;;;;;;;;;;;;;;;32.76;46.12;100699.91;1700785;83;21504;-52
2021/07/13 12:07:08;;;;;;;2.90;2.15;;;;;;;32.72;45.92;100701.97;1667143;84;20179;-46
2021/07/13 12:09:36;;;;;;;3.83;2.65;;;;;;;32.67;48.02;100700.24;1641123;86;20990;-46
2021/07/13 12:12:11;;;;;;;5.40;2.40;;;;;;;32.61;49.45;100698.48;1649969;84;21002;-45
2021/07/13 12:14:42;;;;;;;3.02;2.40;;;;;;;32.53;50.39;100694.95;1669719;85;21472;-51
2021/07/13 12:17:10;;;;;;;3.95;2.60;;;;;;;32.52;50.75;100693.36;1669531;84;21467;-51
2021/07/13 12:19:36;;;;;;;2.25;1.95;;;;;;;32.50;51.27;100689.36;1669872;85;21041;-45
2021/07/13 12:22:12;;;;;;;2.95;1.92;;;;;;;32.46;50.88;100696.43;1669708;84;21018;-46
2021/07/13 12:24:47;;;;;;;4.10;2.75;;;;;;;32.39;49.71;100688.03;1669751;85;21466;-52
2021/07/13 12:27:19;;;;;;;4.15;2.75;;;;;;;32.23;50.90;100687.86;1669380;84;21021;-46
2021/07/13 12:29:53;;;;;;;4.67;2.67;;;;;;;32.16;51.92;100685.91;1669641;85;21010;-52
2021/07/13 12:32:22;;;;;;;3.85;2.75;;;;;;;32.16;52.26;100686.53;1733040;80;21106;-51
2021/07/13 12:34:51;;;;;;;4.90;2.50;;;;;;;32.21;53.15;100682.62;1766808;81;21382;-51
2021/07/13 12:37:21;;;;;;;5.12;3.45;;;;;;;32.35;53.03;100677.41;1746352;79;21009;-52